Time;durP1;ratioP1;P1;durP2;ratioP2;P2;SDS_P1;SDS_P2;PMS_P1;PMS_P2;Temp;Humidity;BMP_temperature;BMP_pressure;BME280_temperature;BME280_humidity;BME280_pressure;Samples;Min_cycle;Max_cycle;Signal;HPM_P1;HPM_P2
2022/11/21 00:01:27;;;;;;;1.90;0.50;;;;;;;;;;5064922;28;20218;-28
2022/11/21 00:03:54;;;;;;;0.80;0.50;;;;;;;;;;5066359;28;20210;-27
2022/11/21 00:08:56;;;;;;;1.63;0.60;;;;;;;;;;5005141;28;20314;-26
2022/11/21 00:11:23;;;;;;;0.63;0.53;;;;;;;;;;5013083;28;20223;-26
2022/11/21 00:13:50;;;;;;;2.57;0.57;;;;;;;;;;5000815;28;20242;-26
2022/11/21 00:16:19;;;;;;;1.70;0.30;;;;;;;;;;5002345;28;20310;-25
2022/11/21 00:18:46;;;;;;;0.73;0.40;;;;;;;;;;5005833;28;20199;-27
2022/11/21 00:21:13;;;;;;;1.07;0.57;;;;;;;;;;5012893;28;20229;-26
2022/11/21 00:23:41;;;;;;;0.30;0.30;;;;;;;;;;5008089;28;20207;-25
2022/11/21 00:26:08;;;;;;;0.90;0.90;;;;;;;;;;5006916;28;20210;-28
2022/11/21 00:28:36;;;;;;;0.40;0.40;;;;;;;;;;5009743;28;20253;-27
2022/11/21 00:31:03;;;;;;;0.83;0.30;;;;;;;;;;5005079;28;20246;-27
2022/11/21 00:33:32;;;;;;;0.30;0.30;;;;;;;;;;5011985;28;20668;-28
2022/11/21 00:35:59;;;;;;;0.63;0.30;;;;;;;;;;5029639;28;20234;-27
2022/11/21 00:38:27;;;;;;;1.07;0.30;;;;;;;;;;5009850;28;20230;-27
2022/11/21 00:40:55;;;;;;;0.60;0.40;;;;;;;;;;5012526;28;20255;-26
2022/11/21 00:43:22;;;;;;;0.30;0.30;;;;;;;;;;5010859;28;20213;-26
2022/11/21 00:45:49;;;;;;;0.50;0.33;;;;;;;;;;5001315;28;20207;-28
2022/11/21 00:48:16;;;;;;;0.30;0.30;;;;;;;;;;5011657;28;20290;-26
2022/11/21 00:50:44;;;;;;;1.13;0.40;;;;;;;;;;5012636;28;20242;-27
2022/11/21 00:53:12;;;;;;;0.50;0.40;;;;;;;;;;5006081;28;20630;-25
2022/11/21 00:55:39;;;;;;;1.67;0.50;;;;;;;;;;5011600;28;20210;-27
2022/11/21 00:58:06;;;;;;;1.53;0.60;;;;;;;;;;5012848;28;20246;-28
2022/11/21 01:00:49;;;;;;;0.90;0.43;;;;;;;;;;5004102;28;20549;-26
2022/11/21 01:03:16;;;;;;;1.23;0.50;;;;;;;;;;5008822;28;20209;-26
2022/11/21 01:05:45;;;;;;;0.33;0.33;;;;;;;;;;5013171;28;20211;-26
2022/11/21 01:08:12;;;;;;;0.30;0.30;;;;;;;;;;5002212;28;20305;-29
2022/11/21 01:10:39;;;;;;;0.37;0.37;;;;;;;;;;5012269;28;20232;-25
2022/11/21 01:13:07;;;;;;;0.50;0.50;;;;;;;;;;5013082;28;20208;-28
2022/11/21 01:15:34;;;;;;;0.70;0.43;;;;;;;;;;5008159;28;20208;-27
2022/11/21 01:18:01;;;;;;;0.50;0.40;;;;;;;;;;5017932;28;20204;-28
2022/11/21 01:20:28;;;;;;;0.27;0.20;;;;;;;;;;5012613;28;20226;-27
2022/11/21 01:22:57;;;;;;;0.40;0.40;;;;;;;;;;5015073;28;20213;-27
2022/11/21 01:25:24;;;;;;;0.87;0.40;;;;;;;;;;5007043;28;20212;-25
2022/11/21 01:27:51;;;;;;;0.90;0.57;;;;;;;;;;5014505;28;20203;-28
2022/11/21 01:30:18;;;;;;;0.57;0.40;;;;;;;;;;5005768;28;20322;-29
2022/11/21 01:32:48;;;;;;;0.50;0.50;;;;;;;;;;5016582;28;20209;-26
2022/11/21 01:35:15;;;;;;;0.73;0.43;;;;;;;;;;5020453;28;20203;-28
2022/11/21 01:37:43;;;;;;;1.37;0.50;;;;;;;;;;5017166;28;20210;-26
2022/11/21 01:40:13;;;;;;;0.60;0.30;;;;;;;;;;4997240;28;20319;-25
2022/11/21 01:42:59;;;;;;;0.20;0.20;;;;;;;;;;5011405;28;20202;-26
2022/11/21 01:45:44;;;;;;;0.60;0.40;;;;;;;;;;5013802;28;20199;-25
2022/11/21 01:48:11;;;;;;;1.97;0.60;;;;;;;;;;5015659;28;20206;-25
2022/11/21 01:50:39;;;;;;;0.67;0.37;;;;;;;;;;5015771;28;20234;-29
2022/11/21 01:53:08;;;;;;;0.57;0.40;;;;;;;;;;5015983;28;20210;-27
2022/11/21 01:55:37;;;;;;;0.40;0.40;;;;;;;;;;5009660;28;20210;-27
2022/11/21 01:58:04;;;;;;;1.73;0.70;;;;;;;;;;5007658;28;20195;-27
2022/11/21 02:00:36;;;;;;;3.43;0.70;;;;;;;;;;5004044;28;20286;-25
2022/11/21 02:03:06;;;;;;;2.30;0.67;;;;;;;;;;5013967;28;20704;-28
2022/11/21 02:05:36;;;;;;;1.23;0.73;;;;;;;;;;5016261;28;20202;-26
2022/11/21 02:08:16;;;;;;;1.80;0.60;;;;;;;;;;5015992;28;20210;-27
2022/11/21 02:10:49;;;;;;;0.93;0.47;;;;;;;;;;5007995;28;20244;-28
2022/11/21 02:13:17;;;;;;;3.00;0.50;;;;;;;;;;5015402;28;20212;-27
2022/11/21 02:15:44;;;;;;;0.93;0.40;;;;;;;;;;5009272;28;20302;-28
2022/11/21 02:18:11;;;;;;;1.80;0.70;;;;;;;;;;5015150;28;20192;-26
2022/11/21 02:20:41;;;;;;;2.93;0.60;;;;;;;;;;5014718;28;20230;-25
2022/11/21 02:23:15;;;;;;;1.70;0.60;;;;;;;;;;5009181;28;20213;-26
2022/11/21 02:25:44;;;;;;;0.70;0.50;;;;;;;;;;4998978;28;20208;-25
2022/11/21 02:28:16;;;;;;;1.63;0.63;;;;;;;;;;5012570;28;20644;-29
2022/11/21 02:30:43;;;;;;;0.50;0.50;;;;;;;;;;5005382;28;20227;-26
2022/11/21 02:33:11;;;;;;;1.47;0.57;;;;;;;;;;5011247;28;20199;-28
2022/11/21 02:35:38;;;;;;;1.00;0.50;;;;;;;;;;5013108;28;20298;-27
2022/11/21 02:38:12;;;;;;;1.00;0.40;;;;;;;;;;5010951;28;20210;-25
2022/11/21 02:40:40;;;;;;;4.27;0.90;;;;;;;;;;5012136;28;20239;-27
2022/11/21 02:43:11;;;;;;;3.53;0.40;;;;;;;;;;5014821;28;20236;-27
2022/11/21 02:45:39;;;;;;;2.23;0.40;;;;;;;;;;5010437;28;20199;-25
2022/11/21 02:48:06;;;;;;;3.10;0.50;;;;;;;;;;5015704;28;20210;-27
2022/11/21 02:50:35;;;;;;;3.10;0.90;;;;;;;;;;5015388;28;20223;-25
2022/11/21 02:53:03;;;;;;;1.07;0.40;;;;;;;;;;5013165;28;20211;-25
2022/11/21 02:55:30;;;;;;;0.53;0.50;;;;;;;;;;5013463;28;20234;-25
2022/11/21 02:57:57;;;;;;;3.23;1.03;;;;;;;;;;5014530;28;20203;-26
2022/11/21 03:00:25;;;;;;;1.10;0.40;;;;;;;;;;5004764;28;20223;-27
2022/11/21 03:02:55;;;;;;;0.63;0.57;;;;;;;;;;5014750;28;20215;-26
2022/11/21 03:05:23;;;;;;;0.70;0.60;;;;;;;;;;5013624;28;20207;-25
2022/11/21 03:07:50;;;;;;;0.20;0.20;;;;;;;;;;5012844;28;20223;-26
2022/11/21 03:10:17;;;;;;;1.80;0.60;;;;;;;;;;5001333;28;20219;-26
2022/11/21 03:12:44;;;;;;;0.73;0.60;;;;;;;;;;5011335;28;20231;-26
2022/11/21 03:15:13;;;;;;;3.07;0.87;;;;;;;;;;5005236;28;20211;-27
2022/11/21 03:17:42;;;;;;;0.93;0.50;;;;;;;;;;5010989;28;20203;-27
2022/11/21 03:20:10;;;;;;;1.17;0.77;;;;;;;;;;5011605;28;20245;-27
2022/11/21 03:22:37;;;;;;;1.90;0.57;;;;;;;;;;5012540;28;20207;-26
2022/11/21 03:25:04;;;;;;;0.70;0.50;;;;;;;;;;5003728;28;20471;-27
2022/11/21 03:27:31;;;;;;;0.63;0.40;;;;;;;;;;5011662;28;20210;-26
2022/11/21 03:29:58;;;;;;;1.70;0.60;;;;;;;;;;5000363;28;20216;-25
2022/11/21 03:32:25;;;;;;;0.63;0.57;;;;;;;;;;5010805;28;20253;-27
2022/11/21 03:34:54;;;;;;;1.63;0.50;;;;;;;;;;5011582;28;20211;-27
2022/11/21 03:37:21;;;;;;;0.60;0.40;;;;;;;;;;5011925;28;20546;-26
2022/11/21 03:39:48;;;;;;;1.83;0.60;;;;;;;;;;5003215;28;20226;-25
2022/11/21 03:42:15;;;;;;;3.20;0.60;;;;;;;;;;5018322;28;20198;-25
2022/11/21 03:44:42;;;;;;;2.83;0.53;;;;;;;;;;5002830;28;20262;-24
2022/11/21 03:47:10;;;;;;;1.37;0.40;;;;;;;;;;5011772;28;20214;-26
2022/11/21 03:49:39;;;;;;;0.63;0.40;;;;;;;;;;5011911;28;20302;-27
2022/11/21 03:52:08;;;;;;;3.27;0.80;;;;;;;;;;5012074;28;20235;-25
2022/11/21 03:54:35;;;;;;;2.50;0.53;;;;;;;;;;5010270;28;20236;-29
2022/11/21 03:57:02;;;;;;;2.17;0.63;;;;;;;;;;5012684;28;20587;-28
2022/11/21 03:59:32;;;;;;;1.93;0.60;;;;;;;;;;5005910;28;20267;-28
2022/11/21 04:01:59;;;;;;;0.97;0.60;;;;;;;;;;5011903;28;20618;-27
2022/11/21 04:04:26;;;;;;;0.30;0.30;;;;;;;;;;5013115;28;20210;-25
2022/11/21 04:06:53;;;;;;;1.93;0.80;;;;;;;;;;5013372;28;20584;-26
2022/11/21 04:09:22;;;;;;;2.67;0.60;;;;;;;;;;5003062;28;20303;-28
2022/11/21 04:11:49;;;;;;;3.60;0.70;;;;;;;;;;5000471;28;20238;-28
2022/11/21 04:14:19;;;;;;;3.70;0.90;;;;;;;;;;5005488;28;20581;-25
2022/11/21 04:16:46;;;;;;;0.50;0.50;;;;;;;;;;5008014;28;20608;-26
2022/11/21 04:19:13;;;;;;;1.43;0.60;;;;;;;;;;5010736;28;20214;-28
2022/11/21 04:21:40;;;;;;;2.13;0.60;;;;;;;;;;5008195;28;20254;-24
2022/11/21 04:24:08;;;;;;;2.17;0.73;;;;;;;;;;5006489;28;20203;-26
2022/11/21 04:26:36;;;;;;;2.50;0.83;;;;;;;;;;5010167;28;20266;-26
2022/11/21 04:29:04;;;;;;;1.23;0.70;;;;;;;;;;5004598;28;20261;-28
2022/11/21 04:31:31;;;;;;;3.77;0.73;;;;;;;;;;5003781;28;20247;-26
2022/11/21 04:33:58;;;;;;;3.07;1.20;;;;;;;;;;5010425;28;20204;-26
2022/11/21 04:36:25;;;;;;;0.50;0.50;;;;;;;;;;5009940;28;20203;-27
2022/11/21 04:38:52;;;;;;;2.80;0.70;;;;;;;;;;4999668;28;20303;-26
2022/11/21 04:41:19;;;;;;;2.97;0.50;;;;;;;;;;5008963;28;20223;-26
2022/11/21 04:43:48;;;;;;;1.80;0.40;;;;;;;;;;5006518;28;20303;-29
2022/11/21 04:46:15;;;;;;;0.77;0.37;;;;;;;;;;5002223;28;20296;-27
2022/11/21 04:48:42;;;;;;;3.73;0.63;;;;;;;;;;5010480;28;20199;-26
2022/11/21 04:51:09;;;;;;;0.50;0.50;;;;;;;;;;5010504;28;20252;-28
2022/11/21 04:53:37;;;;;;;0.27;0.27;;;;;;;;;;5015952;28;20213;-29
2022/11/21 04:56:05;;;;;;;1.10;0.60;;;;;;;;;;5009162;28;20204;-27
2022/11/21 04:58:32;;;;;;;0.67;0.40;;;;;;;;;;5012046;28;20203;-26
2022/11/21 05:01:05;;;;;;;1.13;0.30;;;;;;;;;;5012814;28;20226;-26
2022/11/21 05:03:32;;;;;;;1.60;0.50;;;;;;;;;;5014492;28;20202;-27
2022/11/21 05:06:00;;;;;;;0.60;0.40;;;;;;;;;;5014366;28;20213;-26
2022/11/21 05:08:27;;;;;;;1.27;0.57;;;;;;;;;;5010811;28;20222;-28
2022/11/21 05:13:39;;;;;;;1.33;0.20;;;;;;;;;;5011919;28;20210;-27
2022/11/21 05:16:08;;;;;;;0.60;0.37;;;;;;;;;;5009149;28;20214;-26
2022/11/21 05:18:35;;;;;;;0.37;0.33;;;;;;;;;;5013411;28;20203;-27
2022/11/21 05:21:02;;;;;;;0.20;0.20;;;;;;;;;;5013908;28;20235;-26
2022/11/21 05:23:30;;;;;;;0.13;0.13;;;;;;;;;;5007318;28;20273;-26
2022/11/21 05:25:57;;;;;;;0.30;0.20;;;;;;;;;;5009735;28;20207;-27
2022/11/21 05:28:24;;;;;;;0.93;0.40;;;;;;;;;;5013752;28;20294;-25
2022/11/21 05:30:51;;;;;;;2.23;0.40;;;;;;;;;;5008303;28;20223;-25
2022/11/21 05:33:20;;;;;;;0.30;0.30;;;;;;;;;;5013110;28;20226;-27
2022/11/21 05:38:15;;;;;;;1.17;0.23;;;;;;;;;;5044058;28;20210;-28
2022/11/21 05:40:42;;;;;;;0.50;0.30;;;;;;;;;;5045954;28;20257;-26
2022/11/21 05:45:52;;;;;;;3.30;0.30;;;;;;;;;;5040564;28;20241;-28
2022/11/21 05:48:20;;;;;;;0.47;0.47;;;;;;;;;;5052789;28;20198;-28
2022/11/21 05:50:49;;;;;;;0.20;0.20;;;;;;;;;;5053234;28;20226;-26
2022/11/21 05:53:16;;;;;;;1.80;0.40;;;;;;;;;;5046623;28;20226;-27
2022/11/21 05:55:44;;;;;;;0.33;0.30;;;;;;;;;;5052430;28;20206;-25
2022/11/21 05:58:11;;;;;;;0.33;0.30;;;;;;;;;;5053127;28;20575;-27
2022/11/21 06:00:38;;;;;;;0.30;0.30;;;;;;;;;;5044691;28;20224;-26
2022/11/21 06:05:52;;;;;;;0.20;0.20;;;;;;;;;;5052457;28;20288;-26
2022/11/21 06:08:19;;;;;;;0.47;0.47;;;;;;;;;;5131331;23;20229;-31
2022/11/21 06:10:46;;;;;;;0.27;0.27;;;;;;;;;;5044842;28;20222;-33
2022/11/21 06:13:21;;;;;;;1.40;0.50;;;;;;;;;;5051577;28;20232;-27
2022/11/21 06:15:52;;;;;;;0.60;0.60;;;;;;;;;;5043075;28;20209;-26
2022/11/21 06:18:20;;;;;;;1.17;0.70;;;;;;;;;;5052292;28;20194;-27
2022/11/21 06:20:47;;;;;;;0.23;0.23;;;;;;;;;;5051186;28;20284;-32
2022/11/21 06:23:16;;;;;;;0.30;0.30;;;;;;;;;;5040971;28;20208;-28
2022/11/21 06:25:43;;;;;;;0.40;0.40;;;;;;;;;;5048333;28;20531;-29
2022/11/21 06:28:13;;;;;;;0.37;0.37;;;;;;;;;;5044316;28;20226;-27
2022/11/21 06:30:40;;;;;;;0.57;0.30;;;;;;;;;;5039091;28;20343;-30
2022/11/21 06:33:07;;;;;;;0.57;0.40;;;;;;;;;;5051330;28;20229;-28
2022/11/21 06:35:38;;;;;;;0.50;0.50;;;;;;;;;;5051800;28;20216;-28
2022/11/21 06:38:05;;;;;;;1.33;0.37;;;;;;;;;;5050563;28;20206;-27
2022/11/21 06:40:33;;;;;;;0.37;0.37;;;;;;;;;;5047174;28;20222;-28
2022/11/21 06:43:00;;;;;;;0.20;0.20;;;;;;;;;;5051088;28;20202;-28
2022/11/21 06:45:28;;;;;;;0.30;0.30;;;;;;;;;;5040343;28;20195;-28
2022/11/21 06:47:55;;;;;;;1.60;0.50;;;;;;;;;;5049743;28;20206;-28
2022/11/21 06:50:22;;;;;;;1.57;1.30;;;;;;;;;;5051673;28;20230;-29
2022/11/21 06:52:49;;;;;;;1.07;0.60;;;;;;;;;;5046591;28;20234;-31
2022/11/21 06:55:16;;;;;;;1.13;0.43;;;;;;;;;;5042391;28;20206;-31
2022/11/21 06:57:45;;;;;;;0.40;0.30;;;;;;;;;;5050678;28;20202;-28
2022/11/21 07:00:13;;;;;;;0.40;0.40;;;;;;;;;;5042013;28;20232;-28
2022/11/21 07:02:40;;;;;;;1.10;1.00;;;;;;;;;;5049816;28;20285;-30
2022/11/21 07:05:07;;;;;;;0.40;0.40;;;;;;;;;;5052602;28;20205;-30
2022/11/21 07:07:34;;;;;;;0.77;0.57;;;;;;;;;;5053470;28;20206;-30
2022/11/21 07:10:01;;;;;;;0.67;0.57;;;;;;;;;;5041800;28;20213;-29
2022/11/21 07:15:15;;;;;;;0.73;0.63;;;;;;;;;;5047038;28;20271;-28
2022/11/21 07:17:42;;;;;;;0.70;0.70;;;;;;;;;;5052828;28;20191;-29
2022/11/21 07:20:10;;;;;;;0.60;0.60;;;;;;;;;;5053180;28;20312;-29
2022/11/21 07:22:37;;;;;;;2.97;0.83;;;;;;;;;;5053992;28;20210;-31
2022/11/21 07:25:04;;;;;;;0.57;0.57;;;;;;;;;;5045298;28;20244;-30
2022/11/21 07:27:42;;;;;;;0.73;0.70;;;;;;;;;;5043273;28;20228;-28
2022/11/21 07:30:10;;;;;;;1.47;0.83;;;;;;;;;;5036053;28;20225;-27
2022/11/21 07:32:39;;;;;;;1.00;0.83;;;;;;;;;;5050867;28;20229;-27
2022/11/21 07:35:06;;;;;;;0.57;0.57;;;;;;;;;;5053554;28;20198;-28
2022/11/21 07:37:33;;;;;;;0.73;0.60;;;;;;;;;;5036671;28;20208;-29
2022/11/21 07:40:01;;;;;;;1.17;0.60;;;;;;;;;;5046752;28;20202;-30
2022/11/21 07:42:28;;;;;;;0.60;0.60;;;;;;;;;;5048811;28;20198;-31
2022/11/21 07:44:55;;;;;;;0.57;0.50;;;;;;;;;;5046980;28;20222;-30
2022/11/21 07:47:22;;;;;;;0.80;0.50;;;;;;;;;;5051442;28;20206;-25
2022/11/21 07:49:50;;;;;;;0.83;0.67;;;;;;;;;;5052728;28;20216;-29
2022/11/21 07:52:17;;;;;;;0.77;0.47;;;;;;;;;;5035466;28;20233;-29
2022/11/21 07:54:45;;;;;;;0.63;0.60;;;;;;;;;;5042605;28;20818;-28
2022/11/21 07:57:12;;;;;;;1.03;0.60;;;;;;;;;;5049614;28;20202;-27
2022/11/21 07:59:41;;;;;;;1.27;0.70;;;;;;;;;;5047760;28;20202;-27
2022/11/21 08:02:08;;;;;;;0.70;0.70;;;;;;;;;;5041385;28;20317;-26
2022/11/21 08:04:35;;;;;;;3.00;0.60;;;;;;;;;;5052607;28;20198;-28
2022/11/21 08:07:04;;;;;;;0.73;0.60;;;;;;;;;;5053083;28;20216;-31
2022/11/21 08:09:31;;;;;;;2.00;0.60;;;;;;;;;;5036168;28;20301;-29
2022/11/21 08:11:58;;;;;;;0.50;0.50;;;;;;;;;;5049697;28;20332;-28
2022/11/21 08:14:25;;;;;;;1.80;0.60;;;;;;;;;;5050081;28;20206;-27
2022/11/21 08:16:52;;;;;;;2.13;0.83;;;;;;;;;;5046787;28;20224;-28
2022/11/21 08:19:20;;;;;;;1.37;0.90;;;;;;;;;;5053746;28;20206;-26
2022/11/21 08:21:47;;;;;;;0.53;0.53;;;;;;;;;;5053014;28;20226;-27
2022/11/21 08:24:16;;;;;;;1.10;1.00;;;;;;;;;;5048394;28;20204;-29
2022/11/21 08:26:43;;;;;;;2.53;0.73;;;;;;;;;;5052265;28;20279;-27
2022/11/21 08:29:11;;;;;;;3.40;1.00;;;;;;;;;;5045260;28;20217;-27
2022/11/21 08:31:39;;;;;;;0.93;0.83;;;;;;;;;;5036278;28;20230;-29
2022/11/21 08:34:06;;;;;;;2.27;1.00;;;;;;;;;;5052014;28;20224;-29
2022/11/21 08:36:33;;;;;;;1.07;0.97;;;;;;;;;;5041022;28;20441;-27
2022/11/21 08:39:00;;;;;;;1.00;0.80;;;;;;;;;;5047013;28;20206;-27
2022/11/21 08:44:14;;;;;;;3.00;1.10;;;;;;;;;;5038611;28;20339;-31
2022/11/21 08:46:41;;;;;;;2.07;0.80;;;;;;;;;;5043155;28;20206;-29
2022/11/21 08:49:09;;;;;;;2.03;1.00;;;;;;;;;;5051093;28;20198;-26
2022/11/21 08:51:36;;;;;;;3.83;0.90;;;;;;;;;;5047727;28;20223;-26
2022/11/21 08:54:03;;;;;;;1.40;0.97;;;;;;;;;;5045105;28;20226;-29
2022/11/21 08:56:32;;;;;;;2.57;1.03;;;;;;;;;;5049201;28;20212;-30
2022/11/21 08:58:59;;;;;;;1.23;0.90;;;;;;;;;;5044289;28;20207;-29
2022/11/21 09:01:26;;;;;;;1.03;0.77;;;;;;;;;;5041590;28;20399;-30
2022/11/21 09:03:53;;;;;;;1.10;0.90;;;;;;;;;;5048673;28;20204;-30
2022/11/21 09:06:23;;;;;;;2.07;0.70;;;;;;;;;;5045897;28;20202;-29
2022/11/21 09:08:50;;;;;;;1.60;0.90;;;;;;;;;;5038914;28;20217;-27
2022/11/21 09:11:17;;;;;;;2.30;1.43;;;;;;;;;;5040561;28;20249;-29
2022/11/21 09:18:01;;;;;;;5.23;1.23;;;;;;;;;;5048589;28;20234;-29
2022/11/21 09:19:19;;;;;;;3.13;1.10;;;;;;;;;;5044431;28;20220;-32
2022/11/21 09:21:46;;;;;;;3.13;1.03;;;;;;;;;;5045938;28;20226;-27
2022/11/21 09:24:14;;;;;;;1.60;1.00;;;;;;;;;;5048201;28;20198;-28
2022/11/21 09:26:41;;;;;;;1.50;0.90;;;;;;;;;;5050344;28;20202;-31
2022/11/21 09:29:09;;;;;;;1.73;0.77;;;;;;;;;;5045564;28;20242;-28
2022/11/21 09:31:37;;;;;;;2.07;0.90;;;;;;;;;;5046739;28;20224;-27
2022/11/21 09:34:04;;;;;;;1.60;1.07;;;;;;;;;;5048438;28;20225;-27
2022/11/21 09:36:31;;;;;;;2.40;0.87;;;;;;;;;;5038011;28;20296;-30
2022/11/21 09:38:58;;;;;;;3.53;1.00;;;;;;;;;;5047541;28;20237;-27
2022/11/21 09:44:20;;;;;;;3.80;1.30;;;;;;;;;;5046271;28;20212;-27
2022/11/21 09:46:48;;;;;;;2.30;0.90;;;;;;;;;;5050076;28;20281;-28
2022/11/21 09:49:15;;;;;;;2.13;0.90;;;;;;;;;;5054439;28;20202;-29
2022/11/21 09:51:44;;;;;;;1.60;0.80;;;;;;;;;;5054924;28;20227;-29
2022/11/21 09:54:17;;;;;;;3.40;1.13;;;;;;;;;;5044668;28;20228;-30
2022/11/21 09:56:45;;;;;;;3.53;1.10;;;;;;;;;;5053856;28;20194;-27
2022/11/21 09:59:23;;;;;;;2.90;0.90;;;;;;;;;;5049725;28;20199;-28
2022/11/21 10:01:51;;;;;;;3.73;1.13;;;;;;;;;;5051474;28;20225;-28
2022/11/21 10:04:18;;;;;;;3.80;1.00;;;;;;;;;;5049095;28;20224;-30
2022/11/21 10:06:51;;;;;;;1.60;0.87;;;;;;;;;;5051059;28;20198;-24
2022/11/21 10:09:22;;;;;;;1.37;0.63;;;;;;;;;;5047647;28;20221;-29
2022/11/21 10:14:46;;;;;;;1.73;1.07;;;;;;;;;;5044859;28;20244;-29
2022/11/21 10:17:18;;;;;;;4.80;1.40;;;;;;;;;;5051626;28;20228;-26
2022/11/21 10:19:53;;;;;;;0.80;0.73;;;;;;;;;;5054205;28;20198;-26
2022/11/21 10:22:43;;;;;;;5.17;1.47;;;;;;;;;;5045300;28;20248;-29
2022/11/21 10:25:13;;;;;;;1.33;0.70;;;;;;;;;;5048623;28;20198;-31
2022/11/21 10:27:43;;;;;;;7.40;1.10;;;;;;;;;;5053974;28;20202;-30
2022/11/21 10:30:16;;;;;;;1.10;0.63;;;;;;;;;;5043756;28;20225;-28
2022/11/21 10:32:44;;;;;;;4.40;1.10;;;;;;;;;;5051653;28;20198;-31
2022/11/21 10:35:16;;;;;;;4.40;1.10;;;;;;;;;;5035828;28;20212;-27
2022/11/21 10:37:46;;;;;;;0.80;0.80;;;;;;;;;;5050135;28;20205;-29
2022/11/21 10:40:19;;;;;;;1.90;0.70;;;;;;;;;;5046770;28;20318;-30
2022/11/21 10:42:49;;;;;;;0.93;0.70;;;;;;;;;;5053502;28;20201;-31
2022/11/21 10:45:18;;;;;;;1.60;0.63;;;;;;;;;;5043114;28;20209;-29
2022/11/21 10:47:46;;;;;;;3.77;0.63;;;;;;;;;;5050935;28;20205;-26
2022/11/21 10:50:37;;;;;;;3.50;0.87;;;;;;;;;;5054002;28;20230;-30
2022/11/21 10:54:31;;;;;;;16.30;1.27;;;;;;;;;;5033735;28;20257;-25
2022/11/21 10:56:02;;;;;;;3.83;0.50;;;;;;;;;;5042934;28;20217;-25
2022/11/21 10:58:37;;;;;;;1.60;0.90;;;;;;;;;;5043683;28;20288;-28
2022/11/21 11:01:06;;;;;;;1.23;0.70;;;;;;;;;;5050448;28;20239;-28
2022/11/21 11:03:33;;;;;;;3.23;1.00;;;;;;;;;;5055191;28;20201;-28
2022/11/21 11:06:00;;;;;;;2.73;0.83;;;;;;;;;;5054192;28;20206;-31
2022/11/21 11:08:30;;;;;;;3.97;1.27;;;;;;;;;;5047208;28;20227;-26
2022/11/21 11:11:05;;;;;;;3.77;0.80;;;;;;;;;;5049435;28;20228;-24
2022/11/21 11:13:33;;;;;;;4.60;1.00;;;;;;;;;;5042012;28;20233;-25
2022/11/21 11:16:03;;;;;;;2.33;0.83;;;;;;;;;;5042026;28;20206;-28
2022/11/21 11:18:32;;;;;;;4.20;0.90;;;;;;;;;;5052479;28;20198;-30
2022/11/21 11:21:11;;;;;;;2.70;1.30;;;;;;;;;;5038707;28;20461;-29
2022/11/21 11:23:39;;;;;;;3.27;1.07;;;;;;;;;;5046840;28;20213;-28
2022/11/21 11:26:18;;;;;;;4.33;0.87;;;;;;;;;;5045600;28;20350;-29
2022/11/21 11:28:45;;;;;;;2.47;0.83;;;;;;;;;;5045245;28;20195;-29
2022/11/21 11:31:13;;;;;;;2.17;1.20;;;;;;;;;;5046896;28;20221;-30
2022/11/21 11:33:49;;;;;;;0.90;0.63;;;;;;;;;;5045426;28;20233;-31
2022/11/21 11:36:22;;;;;;;0.77;0.60;;;;;;;;;;5041398;28;20198;-26
2022/11/21 11:38:53;;;;;;;2.23;0.83;;;;;;;;;;5045255;28;20221;-31
2022/11/21 11:47:30;;;;;;;2.80;0.80;;;;;;;;;;5046333;28;20255;-26
2022/11/21 11:50:14;;;;;;;9.80;4.27;;;;;;;;;;5052199;28;20288;-31
2022/11/21 11:52:44;;;;;;;12.50;3.73;;;;;;;;;;5043350;28;20269;-29
2022/11/21 11:55:16;;;;;;;2.63;1.23;;;;;;;;;;5039979;28;20210;-29
2022/11/21 11:57:44;;;;;;;2.67;1.40;;;;;;;;;;5049858;28;20201;-27
2022/11/21 12:00:20;;;;;;;7.83;1.70;;;;;;;;;;5042675;28;20294;-28
2022/11/21 12:02:58;;;;;;;4.40;1.10;;;;;;;;;;5051817;28;20212;-31
2022/11/21 12:05:27;;;;;;;2.47;1.57;;;;;;;;;;5051966;28;20198;-26
2022/11/21 12:08:03;;;;;;;3.47;0.90;;;;;;;;;;5042853;28;20210;-32
2022/11/21 12:13:03;;;;;;;3.03;1.00;;;;;;;;;;5068973;28;20250;-28
2022/11/21 12:15:48;;;;;;;0.97;0.50;;;;;;;;;;5063145;28;20201;-24
2022/11/21 12:18:20;;;;;;;1.43;0.73;;;;;;;;;;5065022;28;20193;-28
2022/11/21 12:20:55;;;;;;;3.63;0.63;;;;;;;;;;5066435;28;20631;-26
2022/11/21 12:23:22;;;;;;;2.27;0.67;;;;;;;;;;5064475;28;20198;-25
2022/11/21 12:25:54;;;;;;;4.60;0.90;;;;;;;;;;5068730;28;20239;-26
2022/11/21 12:28:23;;;;;;;3.80;1.20;;;;;;;;;;5065878;28;20276;-27
2022/11/21 12:30:57;;;;;;;3.00;0.70;;;;;;;;;;5067884;28;20228;-26
2022/11/21 12:33:25;;;;;;;1.83;0.90;;;;;;;;;;5070437;28;20233;-26
2022/11/21 12:36:05;;;;;;;2.50;1.00;;;;;;;;;;5072262;28;20208;-27
2022/11/21 12:38:42;;;;;;;2.73;1.03;;;;;;;;;;5068272;28;20258;-25
2022/11/21 12:44:03;;;;;;;3.90;1.07;;;;;;;;;;5068216;28;20209;-26
2022/11/21 12:46:35;;;;;;;1.57;0.70;;;;;;;;;;5067314;28;20212;-28
2022/11/21 12:54:51;;;;;;;3.53;0.83;;;;;;;;;;5056594;28;20248;-28
2022/11/21 12:57:21;;;;;;;2.30;1.00;;;;;;;;;;5064769;28;20197;-26
2022/11/21 13:00:00;;;;;;;1.80;0.53;;;;;;;;;;5064105;28;20205;-27
2022/11/21 13:02:45;;;;;;;4.07;1.00;;;;;;;;;;5070134;28;20285;-27
2022/11/21 13:05:19;;;;;;;3.00;0.83;;;;;;;;;;5071854;28;20217;-29
2022/11/21 13:07:49;;;;;;;2.00;0.83;;;;;;;;;;5056352;28;20370;-26
2022/11/21 13:10:17;;;;;;;1.50;0.70;;;;;;;;;;5068259;28;20257;-28
2022/11/21 13:12:46;;;;;;;3.83;1.07;;;;;;;;;;5071305;28;20651;-26
2022/11/21 13:15:17;;;;;;;2.97;0.87;;;;;;;;;;5062853;28;20225;-26
2022/11/21 13:17:47;;;;;;;1.97;1.03;;;;;;;;;;5074160;28;20201;-27
2022/11/21 13:20:19;;;;;;;1.07;0.73;;;;;;;;;;5071912;28;20316;-28
2022/11/21 13:22:55;;;;;;;3.13;1.10;;;;;;;;;;5076473;28;20196;-28
2022/11/21 13:25:45;;;;;;;2.70;0.80;;;;;;;;;;5068075;28;20207;-26
2022/11/21 13:28:31;;;;;;;1.93;0.70;;;;;;;;;;5074368;28;20617;-24
2022/11/21 13:30:58;;;;;;;1.63;0.90;;;;;;;;;;5064003;28;20226;-25
2022/11/21 13:33:49;;;;;;;2.67;1.00;;;;;;;;;;5075248;28;20693;-29
2022/11/21 13:36:31;;;;;;;1.60;0.90;;;;;;;;;;5059094;28;20292;-29
2022/11/21 13:39:32;;;;;;;2.60;0.80;;;;;;;;;;5050293;28;20213;-28
2022/11/21 13:44:46;;;;;;;4.40;1.00;;;;;;;;;;5067402;28;20228;-27
2022/11/21 13:47:30;;;;;;;2.53;0.67;;;;;;;;;;5070081;28;20269;-26
2022/11/21 13:50:00;;;;;;;1.80;1.07;;;;;;;;;;5069685;28;20298;-26
2022/11/21 13:52:32;;;;;;;2.47;0.77;;;;;;;;;;5070936;28;20208;-28
2022/11/21 13:55:17;;;;;;;2.13;0.50;;;;;;;;;;5075347;28;20216;-27
2022/11/21 13:57:50;;;;;;;2.73;0.83;;;;;;;;;;5074360;28;20228;-29
2022/11/21 14:00:36;;;;;;;3.63;1.00;;;;;;;;;;5062355;28;20217;-28
2022/11/21 14:03:24;;;;;;;1.97;0.70;;;;;;;;;;5073603;28;20272;-25
2022/11/21 14:05:58;;;;;;;2.17;0.93;;;;;;;;;;5074316;28;20201;-28
2022/11/21 14:08:33;;;;;;;3.10;0.80;;;;;;;;;;5070953;28;20679;-28
2022/11/21 14:11:19;;;;;;;2.30;0.70;;;;;;;;;;5059075;28;20237;-27
2022/11/21 14:13:48;;;;;;;3.27;1.43;;;;;;;;;;5070865;28;20211;-27
2022/11/21 14:16:22;;;;;;;3.53;1.00;;;;;;;;;;5071233;28;20267;-26
2022/11/21 14:18:50;;;;;;;1.90;0.67;;;;;;;;;;5073327;28;20583;-29
2022/11/21 14:21:20;;;;;;;3.10;1.00;;;;;;;;;;5075338;28;20233;-26
2022/11/21 14:23:48;;;;;;;2.77;0.60;;;;;;;;;;5057003;28;20198;-26
2022/11/21 14:26:18;;;;;;;2.67;1.10;;;;;;;;;;5072464;28;20201;-25
2022/11/21 14:28:45;;;;;;;5.40;1.20;;;;;;;;;;5071075;28;20251;-28
2022/11/21 14:31:14;;;;;;;6.07;0.90;;;;;;;;;;5067015;28;20683;-27
2022/11/21 14:33:48;;;;;;;2.60;0.90;;;;;;;;;;5071469;28;20197;-26
2022/11/21 14:36:16;;;;;;;1.77;0.80;;;;;;;;;;5074380;28;20204;-27
2022/11/21 14:38:44;;;;;;;6.63;1.37;;;;;;;;;;5063968;28;20569;-29
2022/11/21 14:41:29;;;;;;;3.37;1.00;;;;;;;;;;5073235;28;20217;-27
2022/11/21 14:44:03;;;;;;;6.67;0.97;;;;;;;;;;5071535;28;20209;-26
2022/11/21 14:46:33;;;;;;;3.13;1.10;;;;;;;;;;5065229;28;20642;-28
2022/11/21 14:49:17;;;;;;;1.40;0.77;;;;;;;;;;5073261;28;20653;-27
2022/11/21 14:51:48;;;;;;;3.50;1.07;;;;;;;;;;5072072;28;20253;-25
2022/11/21 14:54:17;;;;;;;3.13;0.87;;;;;;;;;;5067926;28;20301;-27
2022/11/21 14:56:57;;;;;;;2.53;1.00;;;;;;;;;;5073791;28;20674;-29
2022/11/21 14:59:26;;;;;;;2.27;0.93;;;;;;;;;;5068758;28;20198;-26
2022/11/21 15:02:02;;;;;;;3.67;0.77;;;;;;;;;;5068658;28;20308;-28
2022/11/21 15:04:31;;;;;;;4.60;1.03;;;;;;;;;;5072337;28;20223;-27
2022/11/21 15:06:58;;;;;;;1.57;1.00;;;;;;;;;;5070952;28;20201;-25
2022/11/21 15:09:26;;;;;;;3.97;1.20;;;;;;;;;;5064237;28;20197;-28
2022/11/21 15:11:56;;;;;;;2.30;1.10;;;;;;;;;;5073570;28;20316;-27
2022/11/21 15:14:28;;;;;;;4.97;0.90;;;;;;;;;;5068438;28;20316;-26
2022/11/21 15:16:56;;;;;;;1.20;0.83;;;;;;;;;;5069626;28;20296;-28
2022/11/21 15:19:26;;;;;;;1.50;0.90;;;;;;;;;;5070075;28;20233;-28
2022/11/21 15:21:53;;;;;;;1.13;0.90;;;;;;;;;;5070102;28;20222;-27
2022/11/21 15:24:36;;;;;;;3.00;1.20;;;;;;;;;;5065785;28;21879;-27
2022/11/21 15:27:23;;;;;;;3.10;1.07;;;;;;;;;;5070830;28;20291;-27
2022/11/21 15:30:00;;;;;;;2.57;1.00;;;;;;;;;;5060683;28;20209;-26
2022/11/21 15:32:28;;;;;;;5.07;1.57;;;;;;;;;;5069198;28;20201;-28
2022/11/21 15:34:57;;;;;;;3.30;0.97;;;;;;;;;;5072637;28;20743;-25
2022/11/21 15:37:26;;;;;;;3.77;1.10;;;;;;;;;;5062786;28;20682;-25
2022/11/21 15:39:54;;;;;;;1.27;0.80;;;;;;;;;;5064747;28;20206;-29
2022/11/21 15:42:46;;;;;;;2.73;1.57;;;;;;;;;;5072153;28;20201;-27
2022/11/21 15:45:24;;;;;;;3.80;2.30;;;;;;;;;;5046405;28;20201;-25
2022/11/21 15:47:55;;;;;;;6.50;2.63;;;;;;;;;;5062110;28;20284;-27